KBAF/BAF METAR and TAF weather

Enter ICAO airport designator
Station Type Date Time Source
KBAF METAR 2018/12/12 22:53 UTC NOAA

KBAF 122253Z 01007KT 10SM CLR M01/M08 A3018 RMK AO2 SLP226 T10111083


Station Type Date Time Source
KBAF Decoded METAR 2018/12/12 22:53 UTC NOAA

WESTFIELD BARNES MUNICIPAL, MA, United States (KBAF) 42-10N 072-43W 83M
Dec 12, 2018 - 05:53 PM EST / 2018.12.12 2253 UTC
Wind: from the N (010 degrees) at 8 MPH (7 KT):0
Visibility: 10 mile(s):0
Sky conditions: clear
Temperature: 30.0 F (-1.1 C)
Windchill: 23 F (-5 C):1
Dew Point: 17.1 F (-8.3 C)
Relative Humidity: 58%
Pressure (altimeter): 30.18 in. Hg (1022 hPa)
ob: KBAF 122253Z 01007KT 10SM CLR M01/M08 A3018 RMK AO2 SLP226 T10111083
cycle: 23

Station Type Date Time Source
KBAF TAF 2018/12/12 21:12 UTC NOAA

TAF
AMD KBAF 122111Z 1221/1318 04005KT P6SM SKC
FM131100 06003KT P6SM BKN100
FM131600 07004KT P6SM OVC030
TEMPO 1316/1318 3SM -SHSN BKN020


Example: see airport list